Time;durP1;ratioP1;P1;durP2;ratioP2;P2;SDS_P1;SDS_P2;PMS_P1;PMS_P2;Temp;Humidity;BMP_temperature;BMP_pressure;BME280_temperature;BME280_humidity;BME280_pressure;Samples;Min_cycle;Max_cycle;Signal;HPM_P1;HPM_P2
2022/07/21 00:00:25;;;;;;;1.17;0.90;;;26.40;42.80;;;;;;5081321;28;20051;-61
2022/07/21 00:02:53;;;;;;;;;;;26.40;42.80;;;;;;5087649;28;20080;-60
2022/07/21 00:05:20;;;;;;;0.77;0.77;;;26.40;42.80;;;;;;5087189;28;20404;-60
2022/07/21 00:07:48;;;;;;;1.08;1.08;;;26.40;42.90;;;;;;5087423;28;20524;-60
2022/07/21 00:10:18;;;;;;;1.17;0.80;;;26.40;42.80;;;;;;5086940;28;20377;-60
2022/07/21 00:12:45;;;;;;;0.50;0.50;;;26.40;42.90;;;;;;5085901;28;20389;-60
2022/07/21 00:15:15;;;;;;;0.75;0.75;;;26.40;42.90;;;;;;5085633;28;20404;-62
2022/07/21 00:17:43;;;;;;;1.10;1.00;;;26.40;42.90;;;;;;5087467;28;20040;-60
2022/07/21 00:20:12;;;;;;;0.85;0.85;;;26.30;42.80;;;;;;5087204;28;20091;-60
2022/07/21 00:22:39;;;;;;;0.70;0.70;;;26.30;42.90;;;;;;5087428;28;20359;-60
2022/07/21 00:25:08;;;;;;;1.05;1.05;;;26.40;42.90;;;;;;5086296;28;20040;-60
2022/07/21 00:27:36;;;;;;;0.77;0.77;;;26.40;42.90;;;;;;5086984;28;20044;-60
2022/07/21 00:30:06;;;;;;;0.90;0.90;;;26.40;42.90;;;;;;5084866;28;20476;-60
2022/07/21 00:32:33;;;;;;;0.73;0.73;;;26.40;43.00;;;;;;5085619;28;20048;-60
2022/07/21 00:35:04;;;;;;;0.88;0.88;;;26.40;43.00;;;;;;5086586;28;20489;-60
2022/07/21 00:37:31;;;;;;;0.75;0.75;;;26.40;43.00;;;;;;5087213;28;20340;-60
2022/07/21 00:39:59;;;;;;;2.85;1.25;;;26.40;43.00;;;;;;5086306;28;20048;-60
2022/07/21 00:42:28;;;;;;;0.75;0.75;;;26.40;43.00;;;;;;5086681;28;20130;-60
2022/07/21 00:44:56;;;;;;;0.68;0.68;;;26.40;43.00;;;;;;5086764;28;20102;-60
2022/07/21 00:47:27;;;;;;;0.82;0.82;;;26.30;42.90;;;;;;5086676;28;20083;-60
2022/07/21 00:49:55;;;;;;;0.80;0.70;;;26.40;43.00;;;;;;5086825;28;20060;-64
2022/07/21 00:52:22;;;;;;;0.90;0.90;;;26.30;43.00;;;;;;5085069;28;20512;-60
2022/07/21 00:54:50;;;;;;;0.90;0.90;;;26.30;43.00;;;;;;5087049;28;20052;-60
2022/07/21 00:57:17;;;;;;;0.95;0.95;;;26.30;43.00;;;;;;5086851;28;20131;-60
2022/07/21 00:59:45;;;;;;;0.80;0.80;;;26.30;43.00;;;;;;5086805;28;20135;-60
2022/07/21 01:02:13;;;;;;;1.25;1.15;;;26.30;43.00;;;;;;5081563;28;20135;-60
2022/07/21 01:04:40;;;;;;;0.68;0.68;;;26.30;43.60;;;;;;5086502;28;20113;-61
2022/07/21 01:07:08;;;;;;;0.70;0.70;;;26.30;43.10;;;;;;5086816;28;20044;-60
2022/07/21 01:09:35;;;;;;;0.98;0.85;;;26.30;43.10;;;;;;5086339;28;20170;-61
2022/07/21 01:12:03;;;;;;;1.20;1.10;;;26.30;43.10;;;;;;5086642;28;20049;-61
2022/07/21 01:14:31;;;;;;;0.82;0.82;;;26.30;43.10;;;;;;5086291;28;20480;-63
2022/07/21 01:17:02;;;;;;;0.85;0.85;;;26.30;43.10;;;;;;5086484;28;20143;-61
2022/07/21 01:19:30;;;;;;;0.60;0.60;;;26.30;43.10;;;;;;5085929;28;20083;-60
2022/07/21 01:21:57;;;;;;;0.80;0.80;;;26.20;43.10;;;;;;5086653;28;20128;-61
2022/07/21 01:24:24;;;;;;;0.70;0.70;;;26.20;43.10;;;;;;5086644;28;20108;-60
2022/07/21 01:26:53;;;;;;;0.52;0.52;;;26.20;43.10;;;;;;5086573;28;20298;-60
2022/07/21 01:29:21;;;;;;;0.88;0.82;;;26.20;43.10;;;;;;5086217;28;20172;-60
2022/07/21 01:31:49;;;;;;;1.00;1.00;;;26.20;43.10;;;;;;5085811;28;20134;-61
2022/07/21 01:34:20;;;;;;;0.70;0.70;;;26.20;43.20;;;;;;5081819;28;20160;-61
2022/07/21 01:36:47;;;;;;;0.82;0.82;;;26.20;43.20;;;;;;5090589;28;20140;-61
2022/07/21 01:42:02;;;;;;;0.88;0.85;;;26.20;43.20;;;;;;5090246;28;20539;-60
2022/07/21 01:44:32;;;;;;;0.73;0.73;;;26.20;43.30;;;;;;5090581;28;20121;-60
2022/07/21 01:46:59;;;;;;;0.80;0.80;;;26.20;43.20;;;;;;5090060;28;20143;-61
2022/07/21 01:49:26;;;;;;;0.82;0.60;;;26.20;43.30;;;;;;5089615;28;20055;-60
2022/07/21 01:51:53;;;;;;;0.80;0.80;;;26.20;43.30;;;;;;5089391;28;20075;-60
2022/07/21 01:54:21;;;;;;;1.25;1.15;;;26.20;43.30;;;;;;5090188;28;20052;-60
2022/07/21 01:56:51;;;;;;;0.73;0.73;;;26.20;43.30;;;;;;5089887;28;20040;-60
2022/07/21 01:59:18;;;;;;;0.70;0.70;;;26.20;43.30;;;;;;5088927;28;20044;-60
2022/07/21 02:01:46;;;;;;;0.80;0.80;;;26.20;43.30;;;;;;5089686;28;20467;-61
2022/07/21 02:04:14;;;;;;;0.88;0.88;;;26.20;43.30;;;;;;5089822;28;20043;-61
2022/07/21 02:06:41;;;;;;;0.68;0.68;;;26.20;43.30;;;;;;5085474;28;20047;-60
2022/07/21 02:09:08;;;;;;;1.05;0.68;;;26.20;43.30;;;;;;5089283;28;20488;-61
2022/07/21 02:11:36;;;;;;;0.80;0.80;;;26.20;43.30;;;;;;5089054;28;20052;-60
2022/07/21 02:14:03;;;;;;;0.85;0.85;;;26.20;43.30;;;;;;5089650;28;20048;-61
2022/07/21 02:16:31;;;;;;;0.63;0.63;;;26.20;43.30;;;;;;5087984;28;20051;-60
2022/07/21 02:18:58;;;;;;;0.82;0.82;;;26.20;43.30;;;;;;5089758;28;20056;-60
2022/07/21 02:21:25;;;;;;;0.77;0.77;;;26.20;43.30;;;;;;5088786;28;20456;-62
2022/07/21 02:23:53;;;;;;;0.75;0.63;;;26.20;43.30;;;;;;5088469;28;20143;-60
2022/07/21 02:26:20;;;;;;;1.25;0.75;;;26.20;43.30;;;;;;5089119;28;20247;-60
2022/07/21 02:28:47;;;;;;;0.75;0.75;;;26.20;43.30;;;;;;5089431;28;20399;-61
2022/07/21 02:31:15;;;;;;;0.68;0.68;;;26.20;43.40;;;;;;5088662;28;20496;-59
2022/07/21 02:33:42;;;;;;;0.70;0.70;;;26.20;43.30;;;;;;5089536;28;20087;-59
2022/07/21 02:36:09;;;;;;;0.88;0.88;;;26.20;43.40;;;;;;5086145;28;20040;-59
2022/07/21 02:38:37;;;;;;;0.68;0.68;;;26.20;43.40;;;;;;5088447;28;20100;-60
2022/07/21 02:41:04;;;;;;;0.50;0.50;;;26.10;43.30;;;;;;5087031;28;20075;-62
2022/07/21 02:43:31;;;;;;;1.00;0.88;;;26.10;43.40;;;;;;5088901;28;20451;-62
2022/07/21 02:45:58;;;;;;;0.70;0.70;;;26.10;43.40;;;;;;5088943;28;20044;-62
2022/07/21 02:48:25;;;;;;;0.93;0.93;;;26.10;43.40;;;;;;5088367;28;20048;-62
2022/07/21 02:50:53;;;;;;;1.00;1.00;;;26.10;43.40;;;;;;5088736;28;20048;-60
2022/07/21 02:53:22;;;;;;;0.75;0.75;;;26.10;43.40;;;;;;5087324;28;20462;-60
2022/07/21 02:55:52;;;;;;;0.60;0.60;;;26.10;43.40;;;;;;5088838;28;20044;-62
2022/07/21 02:58:23;;;;;;;0.70;0.70;;;26.10;43.40;;;;;;5087201;28;20149;-62
2022/07/21 03:01:03;;;;;;;0.70;0.70;;;26.10;43.40;;;;;;5070665;28;20127;-62
2022/07/21 03:03:32;;;;;;;0.60;0.60;;;26.10;43.50;;;;;;5087155;28;20488;-62
2022/07/21 03:06:00;;;;;;;0.65;0.52;;;26.10;43.50;;;;;;5088736;28;20056;-62
2022/07/21 03:08:28;;;;;;;0.70;0.70;;;26.10;43.50;;;;;;5083971;28;20558;-61
2022/07/21 03:10:55;;;;;;;0.80;0.80;;;26.10;43.50;;;;;;5087108;28;20780;-61
2022/07/21 03:13:23;;;;;;;0.52;0.52;;;26.10;43.50;;;;;;5088828;28;20043;-60
2022/07/21 03:15:50;;;;;;;0.63;0.63;;;26.10;43.50;;;;;;5087942;28;20110;-60
2022/07/21 03:18:17;;;;;;;0.60;0.60;;;26.10;43.50;;;;;;5088232;28;20101;-60
2022/07/21 03:20:46;;;;;;;0.90;0.70;;;26.10;43.50;;;;;;5088092;28;20083;-60
2022/07/21 03:23:13;;;;;;;0.60;0.60;;;26.10;43.50;;;;;;5088330;28;20052;-61
2022/07/21 03:25:40;;;;;;;0.50;0.50;;;26.10;43.50;;;;;;5086201;28;20454;-60
2022/07/21 03:28:08;;;;;;;0.50;0.50;;;26.00;43.50;;;;;;5086563;28;20320;-60
2022/07/21 03:30:36;;;;;;;0.82;0.73;;;26.10;43.50;;;;;;5085951;28;20547;-60
2022/07/21 03:33:04;;;;;;;0.25;0.25;;;26.10;43.60;;;;;;5086765;28;20054;-61
2022/07/21 03:35:32;;;;;;;0.50;0.50;;;26.10;43.50;;;;;;5085413;28;20068;-60
2022/07/21 03:38:00;;;;;;;0.63;0.63;;;26.10;43.50;;;;;;5086833;28;20043;-61
2022/07/21 03:40:30;;;;;;;0.77;0.73;;;26.10;43.50;;;;;;5077507;28;20071;-60
2022/07/21 03:42:59;;;;;;;1.00;0.98;;;26.10;43.50;;;;;;5064887;28;20199;-60
2022/07/21 03:45:30;;;;;;;0.90;0.90;;;26.10;43.40;;;;;;5064892;28;20045;-60
2022/07/21 03:47:59;;;;;;;0.85;0.85;;;26.10;43.40;;;;;;5066325;28;20329;-60
2022/07/21 03:50:27;;;;;;;0.60;0.60;;;26.10;43.40;;;;;;5066259;28;20110;-60
2022/07/21 03:52:54;;;;;;;1.60;0.63;;;26.10;43.30;;;;;;5065488;28;20143;-60
2022/07/21 03:55:22;;;;;;;0.88;0.88;;;26.20;43.40;;;;;;5065976;28;20479;-60
2022/07/21 03:57:58;;;;;;;0.52;0.52;;;26.20;43.40;;;;;;5077852;28;20450;-60
2022/07/21 04:00:32;;;;;;;0.50;0.50;;;26.20;43.30;;;;;;5086890;28;20532;-60
2022/07/21 04:03:00;;;;;;;0.55;0.55;;;26.20;43.30;;;;;;5085914;28;20040;-60
2022/07/21 04:05:28;;;;;;;0.68;0.63;;;26.20;43.20;;;;;;5084889;28;20048;-60
2022/07/21 04:07:56;;;;;;;0.75;0.75;;;26.20;43.30;;;;;;5086535;28;20512;-60
2022/07/21 04:10:26;;;;;;;0.60;0.60;;;26.20;43.20;;;;;;5082048;28;20462;-61
2022/07/21 04:12:56;;;;;;;0.65;0.65;;;26.30;43.20;;;;;;5086254;28;20044;-60
2022/07/21 04:15:23;;;;;;;0.80;0.80;;;26.30;43.20;;;;;;5085957;28;20044;-60
2022/07/21 04:17:51;;;;;;;0.40;0.40;;;26.30;43.20;;;;;;5085922;28;20489;-60
2022/07/21 04:20:19;;;;;;;0.60;0.60;;;26.30;43.10;;;;;;5084478;28;20087;-60
2022/07/21 04:22:47;;;;;;;0.52;0.52;;;26.30;43.10;;;;;;5084277;28;20075;-60
2022/07/21 04:25:16;;;;;;;0.70;0.70;;;26.30;43.10;;;;;;5085851;28;20056;-60
2022/07/21 04:27:44;;;;;;;1.05;0.60;;;26.30;43.10;;;;;;5085090;28;20098;-60
2022/07/21 04:30:14;;;;;;;0.93;0.68;;;26.40;43.10;;;;;;5086019;28;20187;-60
2022/07/21 04:32:41;;;;;;;0.68;0.68;;;26.30;43.00;;;;;;5083197;28;20119;-60
2022/07/21 04:35:09;;;;;;;0.98;0.70;;;26.40;43.00;;;;;;5085654;28;20439;-60
2022/07/21 04:37:37;;;;;;;1.27;0.90;;;26.40;43.00;;;;;;5086052;28;20055;-60
2022/07/21 04:40:07;;;;;;;0.45;0.45;;;26.40;42.90;;;;;;5084513;28;20060;-60
2022/07/21 04:42:34;;;;;;;0.75;0.75;;;26.50;42.90;;;;;;5077248;28;20075;-60
2022/07/21 04:45:03;;;;;;;0.73;0.70;;;26.50;42.90;;;;;;5065254;28;20049;-60
2022/07/21 04:47:31;;;;;;;1.65;0.88;;;26.50;42.90;;;;;;5065225;28;20071;-60
2022/07/21 04:49:58;;;;;;;1.20;0.90;;;26.50;42.80;;;;;;5065456;28;20508;-60
2022/07/21 04:52:25;;;;;;;0.50;0.50;;;26.50;42.80;;;;;;5065150;28;20044;-60
2022/07/21 04:54:52;;;;;;;1.52;0.68;;;26.50;42.70;;;;;;5065213;28;20076;-60
2022/07/21 04:57:19;;;;;;;0.88;0.88;;;26.50;42.70;;;;;;5064192;28;20060;-60
2022/07/21 04:59:46;;;;;;;0.70;0.70;;;26.60;42.70;;;;;;5065073;28;20041;-60
2022/07/21 05:02:13;;;;;;;0.82;0.82;;;26.60;42.70;;;;;;5065345;28;20441;-60
2022/07/21 05:04:41;;;;;;;0.70;0.70;;;26.60;42.60;;;;;;5066400;28;20048;-61
2022/07/21 05:07:08;;;;;;;0.60;0.60;;;26.60;42.60;;;;;;5083786;28;20047;-60
2022/07/21 05:09:35;;;;;;;0.95;0.95;;;26.60;42.70;;;;;;5073963;28;20762;-60
2022/07/21 05:12:03;;;;;;;0.82;0.82;;;26.60;43.40;;;;;;5080379;28;20460;-60
2022/07/21 05:14:30;;;;;;;1.00;1.00;;;26.50;42.90;;;;;;5065650;28;20129;-60
2022/07/21 05:16:57;;;;;;;1.00;1.00;;;26.50;43.20;;;;;;5079694;28;20157;-60
2022/07/21 05:19:24;;;;;;;0.85;0.85;;;26.30;43.50;;;;;;5077400;28;20451;-60
2022/07/21 05:21:51;;;;;;;0.63;0.60;;;26.10;43.90;;;;;;5076487;28;20080;-63
2022/07/21 05:24:18;;;;;;;2.15;1.13;;;25.80;44.40;;;;;;5072390;28;20040;-64
2022/07/21 05:26:45;;;;;;;1.92;1.15;;;25.60;44.90;;;;;;5078867;28;20052;-68
2022/07/21 05:29:13;;;;;;;2.13;1.38;;;25.30;45.20;;;;;;5076910;28;20512;-67
2022/07/21 05:31:40;;;;;;;2.40;1.40;;;25.00;45.70;;;;;;5076913;28;20041;-67
2022/07/21 05:34:08;;;;;;;3.10;1.33;;;24.70;45.90;;;;;;5082822;28;20806;-67
2022/07/21 05:36:35;;;;;;;1.70;1.60;;;24.30;46.00;;;;;;5082865;28;20079;-67
2022/07/21 05:39:04;;;;;;;3.65;1.95;;;24.00;46.30;;;;;;5079181;28;20097;-68
2022/07/21 05:41:31;;;;;;;2.97;1.60;;;23.80;46.60;;;;;;5079925;28;20481;-68
2022/07/21 05:43:58;;;;;;;2.60;1.73;;;23.50;47.40;;;;;;5075105;28;20047;-67
2022/07/21 05:46:25;;;;;;;4.50;1.83;;;23.30;47.40;;;;;;5071644;28;20051;-68
2022/07/21 05:48:54;;;;;;;2.10;1.85;;;23.20;48.00;;;;;;5076441;28;20044;-67
2022/07/21 05:51:22;;;;;;;5.35;1.85;;;23.10;46.80;;;;;;5074944;28;20135;-66
2022/07/21 05:53:49;;;;;;;3.13;2.38;;;22.90;47.50;;;;;;5072587;28;20357;-66
2022/07/21 05:56:16;;;;;;;5.68;2.13;;;22.70;48.60;;;;;;5075080;28;20157;-66
2022/07/21 05:58:45;;;;;;;5.20;2.55;;;22.40;49.00;;;;;;5055434;28;20051;-66
2022/07/21 06:01:12;;;;;;;2.97;2.28;;;22.10;49.60;;;;;;5073214;28;20051;-66
2022/07/21 06:03:45;;;;;;;5.82;3.30;;;21.90;50.50;;;;;;5074721;28;20063;-66
2022/07/21 06:06:16;;;;;;;3.55;2.15;;;21.80;51.50;;;;;;5072157;28;20106;-67
2022/07/21 06:08:45;;;;;;;5.88;2.28;;;21.60;51.30;;;;;;5073066;28;20128;-65
2022/07/21 06:11:15;;;;;;;6.22;2.60;;;21.50;52.20;;;;;;5072282;28;20049;-66
2022/07/21 06:13:43;;;;;;;6.53;3.03;;;21.40;52.40;;;;;;5070323;28;20071;-64
2022/07/21 06:16:10;;;;;;;6.70;2.72;;;21.50;53.20;;;;;;5070174;28;20497;-59
2022/07/21 06:18:37;;;;;;;3.92;2.58;;;21.50;52.30;;;;;;5067172;28;20044;-61
2022/07/21 06:21:05;;;;;;;6.70;3.03;;;21.50;52.60;;;;;;5075094;28;20114;-59
2022/07/21 06:23:33;;;;;;;3.00;1.90;;;21.50;52.60;;;;;;5079507;28;20134;-60
2022/07/21 06:26:00;;;;;;;12.10;2.60;;;21.50;52.70;;;;;;5081392;28;20052;-60
2022/07/21 06:28:27;;;;;;;3.22;2.38;;;21.50;53.00;;;;;;5082689;28;20082;-61
2022/07/21 06:30:55;;;;;;;5.25;2.53;;;21.50;53.20;;;;;;5075705;28;20098;-61
2022/07/21 06:33:22;;;;;;;4.80;3.00;;;21.50;53.20;;;;;;5084467;28;20040;-61
2022/07/21 06:35:50;;;;;;;3.38;2.60;;;21.40;53.40;;;;;;5081370;28;20044;-63
2022/07/21 06:38:17;;;;;;;4.95;2.60;;;21.40;53.90;;;;;;5081751;28;20097;-61
2022/07/21 06:40:44;;;;;;;3.55;2.17;;;21.40;53.90;;;;;;5077706;28;20044;-60
2022/07/21 06:43:13;;;;;;;6.18;3.17;;;21.40;53.80;;;;;;5076691;28;20480;-61
2022/07/21 06:45:56;;;;;;;5.05;3.10;;;21.50;54.00;;;;;;5080762;28;20066;-61
2022/07/21 06:48:25;;;;;;;3.63;2.30;;;21.50;54.20;;;;;;5074979;28;20052;-60
2022/07/21 06:50:53;;;;;;;3.55;2.58;;;21.40;54.10;;;;;;5069160;28;20048;-61
2022/07/21 06:53:22;;;;;;;3.80;2.45;;;21.50;54.10;;;;;;5069598;28;20048;-62
2022/07/21 06:55:54;;;;;;;6.57;3.28;;;21.50;54.10;;;;;;5074363;28;20055;-61
2022/07/21 06:58:29;;;;;;;6.22;3.28;;;21.50;54.10;;;;;;5075345;28;20596;-62
2022/07/21 07:01:05;;;;;;;11.02;2.85;;;21.50;54.30;;;;;;5077287;28;20051;-61
2022/07/21 07:03:33;;;;;;;4.82;2.88;;;21.50;54.40;;;;;;5082241;28;20400;-63
2022/07/21 07:06:03;;;;;;;2.88;2.33;;;21.50;54.50;;;;;;5082579;28;20052;-62
2022/07/21 07:08:30;;;;;;;5.03;2.85;;;21.50;54.70;;;;;;5076602;28;20040;-61
2022/07/21 07:10:58;;;;;;;5.07;2.92;;;21.50;54.60;;;;;;5076899;28;20141;-62
2022/07/21 07:13:25;;;;;;;3.78;3.08;;;21.60;55.00;;;;;;5073656;28;20068;-62
2022/07/21 07:16:12;;;;;;;4.40;2.88;;;21.60;55.00;;;;;;5077855;28;20051;-61
2022/07/21 07:18:39;;;;;;;5.93;3.50;;;21.60;55.30;;;;;;5082706;28;20507;-59
2022/07/21 07:21:07;;;;;;;7.03;3.67;;;21.60;55.50;;;;;;5073165;28;20597;-62
2022/07/21 07:23:38;;;;;;;;;;;21.70;55.50;;;;;;5077877;28;20385;-61
2022/07/21 07:26:07;;;;;;;8.75;3.03;;;21.70;55.50;;;;;;5082534;28;20019;-60
2022/07/21 07:28:35;;;;;;;7.68;3.50;;;21.70;55.50;;;;;;5076725;28;20067;-62
2022/07/21 07:31:02;;;;;;;5.32;3.55;;;21.70;55.60;;;;;;5076067;28;20078;-61
2022/07/21 07:33:29;;;;;;;7.20;3.95;;;21.80;55.70;;;;;;5076265;28;20569;-60
2022/07/21 07:35:57;;;;;;;4.78;3.00;;;21.80;55.70;;;;;;5073842;28;20089;-62
2022/07/21 07:38:24;;;;;;;4.95;3.17;;;21.80;55.70;;;;;;5072298;28;20402;-62
2022/07/21 07:40:52;;;;;;;6.05;2.72;;;21.90;55.80;;;;;;5073216;28;20386;-62
2022/07/21 07:43:20;;;;;;;7.82;3.05;;;21.90;55.70;;;;;;5081132;28;20295;-62
2022/07/21 07:45:47;;;;;;;7.97;3.08;;;21.90;55.40;;;;;;5077257;28;20109;-59
2022/07/21 07:48:14;;;;;;;4.00;2.72;;;22.00;55.30;;;;;;5075278;28;20485;-59
2022/07/21 07:50:42;;;;;;;5.55;2.90;;;22.00;55.40;;;;;;5061104;28;20040;-60
2022/07/21 07:53:09;;;;;;;3.20;2.85;;;22.10;55.60;;;;;;5070000;28;20414;-60
2022/07/21 07:55:36;;;;;;;3.25;2.60;;;22.10;55.60;;;;;;5062395;28;20074;-61
2022/07/21 07:58:03;;;;;;;3.80;2.80;;;22.10;55.60;;;;;;5078730;28;20048;-60
2022/07/21 08:00:31;;;;;;;9.00;2.78;;;22.20;55.40;;;;;;5081181;28;20076;-60
2022/07/21 08:03:19;;;;;;;5.03;2.33;;;22.20;55.90;;;;;;5073708;28;20109;-62
2022/07/21 08:05:47;;;;;;;4.57;3.28;;;22.20;55.40;;;;;;5080224;28;20054;-63
2022/07/21 08:08:15;;;;;;;8.57;2.97;;;22.30;55.20;;;;;;5077317;28;20044;-62
2022/07/21 08:10:45;;;;;;;4.68;3.03;;;22.30;55.00;;;;;;5076939;28;20569;-61
2022/07/21 08:13:16;;;;;;;6.75;2.50;;;22.40;54.90;;;;;;5075613;28;20485;-60
2022/07/21 08:15:46;;;;;;;8.45;2.90;;;22.50;54.80;;;;;;5073239;28;20101;-61
2022/07/21 08:18:14;;;;;;;4.23;2.00;;;22.50;54.60;;;;;;5077647;28;20075;-61
2022/07/21 08:20:42;;;;;;;4.82;2.45;;;22.50;54.40;;;;;;5068243;28;21483;-61
2022/07/21 08:23:11;;;;;;;4.55;2.65;;;22.50;54.30;;;;;;5063194;28;20052;-61
2022/07/21 08:25:39;;;;;;;2.67;2.28;;;22.60;54.30;;;;;;5069090;28;20040;-61
2022/07/21 08:28:06;;;;;;;3.33;2.22;;;22.60;54.30;;;;;;5068791;28;20491;-60
2022/07/21 08:30:34;;;;;;;6.40;2.78;;;22.60;54.30;;;;;;5071754;28;20051;-61
2022/07/21 08:33:02;;;;;;;4.10;2.55;;;22.60;54.20;;;;;;5076690;28;20048;-60
2022/07/21 08:35:30;;;;;;;5.80;2.65;;;22.60;54.20;;;;;;5076354;28;20780;-60
2022/07/21 08:38:00;;;;;;;7.57;2.65;;;22.60;54.00;;;;;;5076778;28;20052;-62
2022/07/21 08:40:29;;;;;;;2.72;2.53;;;22.60;54.00;;;;;;5075857;28;20639;-61
2022/07/21 08:42:57;;;;;;;5.38;2.83;;;22.60;53.90;;;;;;5071507;28;20047;-61
2022/07/21 08:45:24;;;;;;;7.70;2.45;;;22.60;53.90;;;;;;5070573;28;20077;-63
2022/07/21 08:47:54;;;;;;;4.18;3.20;;;22.60;54.20;;;;;;5064392;28;20649;-61
2022/07/21 08:50:29;;;;;;;6.00;2.58;;;22.50;54.00;;;;;;5051692;28;20048;-59
2022/07/21 08:52:56;;;;;;;6.32;2.97;;;22.60;54.30;;;;;;5068498;28;20075;-61
2022/07/21 08:55:31;;;;;;;2.63;2.28;;;22.50;54.40;;;;;;5063283;28;20059;-59
2022/07/21 08:57:59;;;;;;;11.90;2.58;;;22.50;54.30;;;;;;5060651;28;20329;-58
2022/07/21 09:00:26;;;;;;;6.80;3.00;;;22.50;54.60;;;;;;5073733;28;20055;-59
2022/07/21 09:03:18;;;;;;;3.83;2.55;;;22.50;54.50;;;;;;5066307;28;20555;-63
2022/07/21 09:06:04;;;;;;;5.32;3.20;;;22.50;54.60;;;;;;5070048;28;20158;-62
2022/07/21 09:08:40;;;;;;;6.88;2.55;;;22.50;54.60;;;;;;5072243;28;20041;-60
2022/07/21 09:11:15;;;;;;;4.82;2.78;;;22.50;55.70;;;;;;5076523;28;20059;-61
2022/07/21 09:13:44;;;;;;;3.20;2.70;;;22.60;55.60;;;;;;5070703;28;20130;-62
2022/07/21 09:16:11;;;;;;;4.45;2.55;;;22.80;55.00;;;;;;5078070;28;20463;-61
2022/07/21 09:18:50;;;;;;;5.80;2.42;;;23.00;54.40;;;;;;5072939;28;20374;-62
2022/07/21 09:21:19;;;;;;;3.15;2.70;;;23.20;54.00;;;;;;5065673;28;20118;-62
2022/07/21 09:23:47;;;;;;;3.55;2.90;;;23.30;53.70;;;;;;5072476;28;20082;-60
2022/07/21 09:26:15;;;;;;;2.63;2.40;;;23.40;53.20;;;;;;5064536;28;20076;-60
2022/07/21 09:28:42;;;;;;;3.00;2.58;;;23.50;52.90;;;;;;5076593;28;20052;-61
2022/07/21 09:31:12;;;;;;;3.88;2.35;;;23.60;52.50;;;;;;5077268;28;20044;-60
2022/07/21 09:33:44;;;;;;;3.15;2.17;;;23.70;52.30;;;;;;5072468;28;20236;-61
2022/07/21 09:36:16;;;;;;;4.93;2.85;;;23.70;52.10;;;;;;5068953;28;20486;-60
2022/07/21 09:38:51;;;;;;;2.67;2.22;;;23.80;51.80;;;;;;5063645;28;20045;-62
2022/07/21 09:41:20;;;;;;;9.82;2.88;;;23.80;51.40;;;;;;5073692;28;20572;-60
2022/07/21 09:43:51;;;;;;;6.85;2.42;;;23.80;51.10;;;;;;5065103;28;20135;-61
2022/07/21 09:46:22;;;;;;;3.10;2.20;;;23.90;50.80;;;;;;5072862;28;20113;-61
2022/07/21 09:48:51;;;;;;;2.40;2.20;;;23.90;50.60;;;;;;5072074;28;20127;-59
2022/07/21 09:51:41;;;;;;;4.40;2.33;;;23.90;50.60;;;;;;5070639;28;20052;-61
2022/07/21 09:54:12;;;;;;;3.00;2.22;;;23.90;50.20;;;;;;5069436;28;20044;-62
2022/07/21 09:56:42;;;;;;;3.22;2.05;;;24.00;49.90;;;;;;5075693;28;20313;-61
2022/07/21 09:59:12;;;;;;;5.13;2.38;;;23.90;49.80;;;;;;5077393;28;20048;-59
2022/07/21 10:01:40;;;;;;;2.33;2.20;;;23.90;49.60;;;;;;5085172;28;20053;-60
2022/07/21 10:04:08;;;;;;;4.95;2.33;;;24.00;49.20;;;;;;5083260;28;20460;-60
2022/07/21 10:06:37;;;;;;;6.97;2.50;;;24.00;49.10;;;;;;5079058;28;20098;-60
2022/07/21 10:09:08;;;;;;;3.67;2.10;;;23.90;48.90;;;;;;5077078;28;20575;-61
2022/07/21 10:11:39;;;;;;;4.00;1.90;;;23.90;48.70;;;;;;5081065;28;20054;-60
2022/07/21 10:14:10;;;;;;;1.98;1.83;;;24.00;48.30;;;;;;5079032;28;20064;-59
2022/07/21 10:16:37;;;;;;;;;;;24.00;48.10;;;;;;5075659;28;20097;-60
2022/07/21 10:19:32;;;;;;;2.08;1.88;;;23.90;48.00;;;;;;5081862;28;19928;-60
2022/07/21 10:22:24;;;;;;;5.20;2.70;;;23.90;47.80;;;;;;5079149;28;20066;-60
2022/07/21 10:24:53;;;;;;;2.45;2.10;;;23.90;47.90;;;;;;5080461;28;20411;-59
2022/07/21 10:27:20;;;;;;;2.30;2.10;;;23.90;47.70;;;;;;5084808;28;20088;-60
2022/07/21 10:30:08;;;;;;;2.20;2.00;;;23.90;47.80;;;;;;5080321;28;20146;-60
2022/07/21 10:32:47;;;;;;;2.22;1.45;;;23.90;48.00;;;;;;5083650;28;20040;-60
2022/07/21 10:35:28;;;;;;;5.15;2.00;;;23.90;48.00;;;;;;5085341;28;20044;-59
2022/07/21 10:37:56;;;;;;;5.28;1.75;;;23.90;48.30;;;;;;5073094;28;20219;-59
2022/07/21 10:40:35;;;;;;;3.10;1.80;;;23.80;48.20;;;;;;5064231;28;20040;-61
2022/07/21 10:43:38;;;;;;;2.13;1.95;;;23.80;47.90;;;;;;5076893;28;20452;-60
2022/07/21 10:46:31;;;;;;;1.98;1.88;;;23.90;47.70;;;;;;5076289;28;20098;-60
2022/07/21 10:48:59;;;;;;;2.10;2.00;;;23.90;47.60;;;;;;5075871;28;20048;-60
2022/07/21 10:51:26;;;;;;;2.05;1.90;;;23.90;47.60;;;;;;5073217;28;20048;-59
2022/07/21 10:54:18;;;;;;;5.13;1.98;;;23.90;47.70;;;;;;5080591;28;20477;-61
2022/07/21 10:56:45;;;;;;;1.75;1.65;;;23.90;47.70;;;;;;5076792;28;20288;-62
2022/07/21 10:59:12;;;;;;;1.83;1.73;;;23.70;48.10;;;;;;5083492;28;20040;-61
2022/07/21 11:01:40;;;;;;;3.78;2.08;;;23.60;48.80;;;;;;5072267;28;20056;-61
2022/07/21 11:04:13;;;;;;;3.67;1.88;;;23.40;50.00;;;;;;5081611;28;20042;-60
2022/07/21 11:06:41;;;;;;;1.90;1.80;;;23.30;50.30;;;;;;5075701;28;20102;-63
2022/07/21 11:09:14;;;;;;;1.80;1.63;;;23.20;50.80;;;;;;5080027;28;23018;-61
2022/07/21 11:11:58;;;;;;;1.92;1.77;;;23.00;51.20;;;;;;5074211;28;20106;-61
2022/07/21 11:14:38;;;;;;;2.45;1.92;;;23.00;51.70;;;;;;5079754;28;20048;-60
2022/07/21 11:17:05;;;;;;;3.40;1.70;;;22.90;51.90;;;;;;5078359;28;20052;-61
2022/07/21 11:19:50;;;;;;;2.00;1.90;;;22.80;52.30;;;;;;5062306;28;20053;-60
2022/07/21 11:22:29;;;;;;;4.78;1.90;;;22.80;52.40;;;;;;5076989;28;20645;-62
2022/07/21 11:24:59;;;;;;;4.72;1.70;;;22.80;52.70;;;;;;5074240;28;20079;-60
2022/07/21 11:27:31;;;;;;;2.03;1.92;;;22.70;52.80;;;;;;5078052;28;20056;-60
2022/07/21 11:30:02;;;;;;;2.95;1.88;;;22.70;52.60;;;;;;5079431;28;20044;-61
2022/07/21 11:32:30;;;;;;;2.25;1.83;;;22.70;52.70;;;;;;5071821;28;20040;-60
2022/07/21 11:35:03;;;;;;;3.45;2.42;;;22.70;52.70;;;;;;5073437;28;20366;-62
2022/07/21 11:37:37;;;;;;;2.00;1.80;;;22.70;52.70;;;;;;5076499;28;20059;-59
2022/07/21 11:40:18;;;;;;;3.80;1.75;;;22.70;52.70;;;;;;5073990;28;20048;-60
2022/07/21 11:42:47;;;;;;;2.35;2.17;;;22.60;52.70;;;;;;5079396;28;20082;-60
2022/07/21 11:45:17;;;;;;;2.35;1.60;;;22.60;52.70;;;;;;5076854;28;20134;-60
2022/07/21 11:47:49;;;;;;;4.07;2.35;;;22.50;52.90;;;;;;5074706;28;20400;-60
2022/07/21 11:50:18;;;;;;;2.78;1.80;;;22.60;53.20;;;;;;5077915;28;20540;-60
2022/07/21 11:52:45;;;;;;;3.53;2.42;;;22.60;53.30;;;;;;5075806;28;20500;-59
2022/07/21 11:55:13;;;;;;;4.32;1.88;;;22.60;53.30;;;;;;5079832;28;20547;-62
2022/07/21 11:57:44;;;;;;;2.03;1.92;;;22.60;53.30;;;;;;5077306;28;20125;-61
2022/07/21 12:00:13;;;;;;;2.15;1.60;;;22.70;53.30;;;;;;5076892;28;20051;-61
2022/07/21 12:02:43;;;;;;;5.63;2.22;;;22.70;53.50;;;;;;5075181;28;20044;-61
2022/07/21 12:05:13;;;;;;;2.80;1.75;;;22.70;53.40;;;;;;5065680;28;20044;-60
2022/07/21 12:07:43;;;;;;;2.03;1.80;;;22.70;53.30;;;;;;5072681;28;20326;-60
2022/07/21 12:10:20;;;;;;;2.20;2.10;;;22.60;53.10;;;;;;5077845;28;20059;-60
2022/07/21 12:12:49;;;;;;;3.55;1.80;;;22.70;53.20;;;;;;5083815;28;20067;-58
2022/07/21 12:15:22;;;;;;;2.47;1.90;;;22.70;53.20;;;;;;5080900;28;20059;-60
2022/07/21 12:17:52;;;;;;;4.10;2.15;;;22.70;53.10;;;;;;5076007;28;20055;-60
2022/07/21 12:20:30;;;;;;;;;;;22.70;53.20;;;;;;5079887;28;20043;-60
2022/07/21 12:22:59;;;;;;;2.50;2.17;;;22.70;53.20;;;;;;5079790;28;19920;-61
2022/07/21 12:25:39;;;;;;;6.57;2.53;;;22.70;53.00;;;;;;5082225;28;20047;-59
2022/07/21 12:28:08;;;;;;;1.98;1.88;;;22.70;52.90;;;;;;5075356;28;20790;-60
2022/07/21 12:30:44;;;;;;;2.10;1.90;;;22.70;52.80;;;;;;5088290;28;21009;-60
2022/07/21 12:33:14;;;;;;;2.75;1.65;;;22.70;52.90;;;;;;5078285;28;20047;-59
2022/07/21 12:35:44;;;;;;;3.03;1.90;;;22.60;52.90;;;;;;5073531;28;20106;-59
2022/07/21 12:38:14;;;;;;;4.30;2.00;;;22.60;52.80;;;;;;5077686;28;20056;-59
2022/07/21 12:40:46;;;;;;;2.65;1.90;;;22.60;52.80;;;;;;5077584;28;20102;-60
2022/07/21 12:43:34;;;;;;;1.80;1.70;;;22.70;52.80;;;;;;5077036;28;20501;-59
2022/07/21 12:46:17;;;;;;;2.47;2.10;;;22.70;52.80;;;;;;5077192;28;20105;-59
2022/07/21 12:48:45;;;;;;;2.00;1.90;;;22.70;52.50;;;;;;5073973;28;20524;-59
2022/07/21 12:51:20;;;;;;;3.50;2.00;;;22.70;52.40;;;;;;5060738;28;20052;-59
2022/07/21 12:53:52;;;;;;;2.10;1.90;;;22.70;52.20;;;;;;5073968;28;20044;-59
2022/07/21 12:56:25;;;;;;;1.63;1.52;;;22.70;52.30;;;;;;5072913;28;20484;-59
2022/07/21 12:58:55;;;;;;;1.85;1.75;;;22.70;52.40;;;;;;5067532;28;20131;-58
2022/07/21 13:01:25;;;;;;;3.15;1.70;;;22.70;52.40;;;;;;5079449;28;20051;-58
2022/07/21 13:03:54;;;;;;;1.95;1.50;;;22.70;52.20;;;;;;5073609;28;20138;-59